createdAt,value
2023-02-01T00:02:23.683Z,101457.47
2023-02-01T00:04:50.193Z,101453.78
2023-02-01T00:07:16.679Z,101449.03
2023-02-01T00:09:43.270Z,101442.53
2023-02-01T00:12:09.759Z,101444.78
2023-02-01T00:14:39.301Z,101444.81
2023-02-01T00:17:08.624Z,101445.25
2023-02-01T00:19:35.496Z,101460.09
2023-02-01T00:22:02.025Z,101448.78
2023-02-01T00:24:28.764Z,101452.59
2023-02-01T00:26:55.266Z,101459.25
2023-02-01T00:29:22.174Z,101458.97
2023-02-01T00:31:51.491Z,101462.38
2023-02-01T00:34:17.896Z,101468.88
2023-02-01T00:36:45.402Z,101453.88
2023-02-01T00:39:12.859Z,101454.72
2023-02-01T00:41:39.512Z,101451.31
2023-02-01T00:44:06.093Z,101451.31
2023-02-01T00:46:32.983Z,101456.69
2023-02-01T00:48:59.506Z,101462.06
2023-02-01T00:51:29.138Z,101458.13
2023-02-01T00:53:56.152Z,101455.13
2023-02-01T00:56:22.948Z,101451.88
2023-02-01T00:58:49.656Z,101456.16
2023-02-01T01:01:22.286Z,101455.28
2023-02-01T01:03:54.785Z,101451.47
2023-02-01T01:06:23.593Z,101447.63
2023-02-01T01:08:53.124Z,101438.47
2023-02-01T01:11:22.345Z,101426.84
2023-02-01T01:13:50.694Z,101410.88
2023-02-01T01:16:18.620Z,101409.44
2023-02-01T01:18:46.039Z,101406.63
2023-02-01T01:21:14.369Z,101414.81
2023-02-01T01:23:41.166Z,101414.81
2023-02-01T01:26:09.636Z,101419.81
2023-02-01T01:28:36.132Z,101435.50
2023-02-01T01:31:03.397Z,101429.25
2023-02-01T01:33:29.916Z,101438.31
2023-02-01T01:35:56.474Z,101438.31
2023-02-01T01:38:23.267Z,101444.53
2023-02-01T01:40:52.795Z,101454.44
2023-02-01T01:43:23.391Z,101445.66
2023-02-01T01:45:51.575Z,101444.28
2023-02-01T01:48:30.205Z,101456.56
2023-02-01T01:51:03.825Z,101455.00
2023-02-01T01:53:42.738Z,101458.38
2023-02-01T01:56:09.252Z,101452.47
2023-02-01T01:58:35.784Z,101449.50
2023-02-01T02:01:02.266Z,101437.34
2023-02-01T02:03:35.933Z,101433.66
2023-02-01T02:06:06.403Z,101427.03
2023-02-01T02:08:33.163Z,101424.34
2023-02-01T02:11:02.483Z,101422.47
2023-02-01T02:13:39.776Z,101410.03
2023-02-01T02:16:31.881Z,101403.81
2023-02-01T02:19:36.272Z,101412.59
2023-02-01T02:22:27.276Z,101411.88
2023-02-01T02:25:18.245Z,101416.13
2023-02-01T02:28:15.682Z,101410.88
2023-02-01T02:31:07.858Z,101398.16
2023-02-01T02:34:07.493Z,101402.25
2023-02-01T02:37:01.604Z,101400.38
2023-02-01T02:39:51.330Z,101405.38
2023-02-01T02:42:56.960Z,101407.91
2023-02-01T02:45:52.272Z,101405.22
2023-02-01T02:48:26.146Z,101405.06
2023-02-01T02:51:38.398Z,101403.25
2023-02-01T02:54:37.565Z,101401.53
2023-02-01T02:57:27.227Z,101396.72
2023-02-01T03:00:13.060Z,101394.72
2023-02-01T03:02:59.126Z,101379.22
2023-02-01T03:05:26.431Z,101375.22
2023-02-01T03:08:10.955Z,101376.91
2023-02-01T03:10:43.127Z,101375.09
2023-02-01T03:13:20.970Z,101381.44
2023-02-01T03:16:37.448Z,101380.91
2023-02-01T03:19:26.626Z,101369.84
2023-02-01T03:22:04.701Z,101373.50
2023-02-01T03:24:36.119Z,101374.22
2023-02-01T03:27:25.343Z,101369.16
2023-02-01T03:30:10.602Z,101387.66
2023-02-01T03:32:59.621Z,101387.81
2023-02-01T03:35:45.147Z,101381.56
2023-02-01T03:38:35.796Z,101376.38
2023-02-01T03:41:22.889Z,101378.59
2023-02-01T03:44:21.281Z,101375.53
2023-02-01T03:47:01.041Z,101374.66
2023-02-01T03:49:35.777Z,101383.44
2023-02-01T03:52:04.495Z,101373.41
2023-02-01T03:54:32.529Z,101365.50
2023-02-01T03:57:03.914Z,101360.53
2023-02-01T03:59:31.098Z,101362.84
2023-02-01T04:01:57.528Z,101351.66
2023-02-01T04:04:24.081Z,101358.16
2023-02-01T04:06:51.292Z,101361.72
2023-02-01T04:09:18.046Z,101359.03
2023-02-01T04:11:44.820Z,101359.56
2023-02-01T04:14:11.349Z,101358.44
2023-02-01T04:16:37.855Z,101358.44
2023-02-01T04:19:04.404Z,101361.69
2023-02-01T04:21:30.883Z,101365.91
2023-02-01T04:23:57.417Z,101361.41
2023-02-01T04:26:24.186Z,101367.63
2023-02-01T04:28:51.762Z,101362.25
2023-02-01T04:31:18.874Z,101361.69
2023-02-01T04:33:45.385Z,101347.25
2023-02-01T04:36:11.967Z,101337.38
2023-02-01T04:38:38.562Z,101345.28
2023-02-01T04:41:05.164Z,101349.78
2023-02-01T04:43:31.677Z,101348.41
2023-02-01T04:45:58.254Z,101354.34
2023-02-01T04:48:25.128Z,101358.03
2023-02-01T04:50:52.142Z,101351.25
2023-02-01T04:53:18.915Z,101346.44
2023-02-01T04:55:45.932Z,101336.72
2023-02-01T04:58:12.416Z,101323.56
2023-02-01T05:00:38.948Z,101326.69
2023-02-01T05:03:06.126Z,101313.69
2023-02-01T05:05:32.640Z,101311.28
2023-02-01T05:07:59.196Z,101306.19
2023-02-01T05:10:25.827Z,101307.47
2023-02-01T05:13:10.748Z,101314.25
2023-02-01T05:15:37.400Z,101307.47
2023-02-01T05:18:04.055Z,101315.81
2023-02-01T05:20:30.605Z,101324.72
2023-02-01T05:22:57.363Z,101320.50
2023-02-01T05:25:23.883Z,101336.88
2023-02-01T05:27:50.294Z,101335.31
2023-02-01T05:30:17.084Z,101341.66
2023-02-01T05:32:43.545Z,101339.53
2023-02-01T05:35:10.188Z,101333.19
2023-02-01T05:37:36.848Z,101336.84
2023-02-01T05:40:04.095Z,101337.84
2023-02-01T05:42:30.514Z,101286.16
2023-02-01T05:44:57.242Z,101339.00
2023-02-01T05:47:23.718Z,101332.06
2023-02-01T05:49:50.234Z,101347.19
2023-02-01T05:52:20.285Z,101340.84
2023-02-01T05:54:48.058Z,101327.28
2023-02-01T05:57:15.683Z,101326.41
2023-02-01T05:59:42.435Z,101327.69
2023-02-01T06:02:10.937Z,101332.47
2023-02-01T06:04:37.318Z,101331.06
2023-02-01T06:07:03.914Z,101344.34
2023-02-01T06:09:30.456Z,101343.66
2023-02-01T06:11:56.983Z,101345.63
2023-02-01T06:14:23.479Z,101330.22
2023-02-01T06:16:49.990Z,101326.00
2023-02-01T06:19:16.665Z,101327.84
2023-02-01T06:21:43.121Z,101322.75
2023-02-01T06:24:09.626Z,101330.81
2023-02-01T06:26:37.017Z,101328.41
2023-02-01T06:29:03.560Z,101339.28
2023-02-01T06:31:30.181Z,101340.81
2023-02-01T06:33:56.715Z,101352.72
2023-02-01T06:36:23.165Z,101355.22
2023-02-01T06:38:49.771Z,101349.84
2023-02-01T06:41:17.267Z,101365.81
2023-02-01T06:43:44.522Z,101364.44
2023-02-01T06:46:13.668Z,101349.84
2023-02-01T06:48:40.532Z,101359.22
2023-02-01T06:51:07.647Z,101365.69
2023-02-01T06:53:34.986Z,101375.00
2023-02-01T06:56:03.758Z,101371.75
2023-02-01T06:58:32.299Z,101376.13
2023-02-01T07:00:59.795Z,101373.56
2023-02-01T07:03:26.278Z,101372.47
2023-02-01T07:05:57.422Z,101370.47
2023-02-01T07:08:23.920Z,101377.22
2023-02-01T07:10:50.439Z,101380.63
2023-02-01T07:13:16.940Z,101373.72
2023-02-01T07:15:43.362Z,101379.25
2023-02-01T07:18:09.904Z,101389.97
2023-02-01T07:20:36.397Z,101387.44
2023-02-01T07:23:02.829Z,101388.84
2023-02-01T07:25:29.269Z,101392.09
2023-02-01T07:27:55.744Z,101393.78
2023-02-01T07:30:22.625Z,101403.53
2023-02-01T07:32:49.283Z,101401.84
2023-02-01T07:35:15.868Z,101406.22
2023-02-01T07:37:42.426Z,101405.53
2023-02-01T07:40:09.848Z,101414.13
2023-02-01T07:42:36.402Z,101406.78
2023-02-01T07:45:19.857Z,101414.84
2023-02-01T07:47:47.593Z,101409.63
2023-02-01T07:50:14.148Z,101417.69
2023-02-01T07:52:41.632Z,101405.53
2023-02-01T07:55:08.575Z,101400.16
2023-02-01T07:57:35.097Z,101405.94
2023-02-01T08:00:20.345Z,101394.19
2023-02-01T08:02:46.920Z,101404.66
2023-02-01T08:05:13.412Z,101404.66
2023-02-01T08:07:39.913Z,101425.31
2023-02-01T08:10:11.504Z,101418.09
2023-02-01T08:12:38.520Z,101427.88
2023-02-01T08:15:05.522Z,101428.41
2023-02-01T08:17:31.929Z,101428.25
2023-02-01T08:19:58.465Z,101418.22
2023-02-01T08:22:25.027Z,101422.06
2023-02-01T08:24:52.544Z,101418.50
2023-02-01T08:27:19.211Z,101420.78
2023-02-01T08:29:45.696Z,101417.09
2023-02-01T08:32:12.302Z,101420.78
2023-02-01T08:34:38.755Z,101426.00
2023-02-01T08:37:05.197Z,101426.00
2023-02-01T08:39:31.625Z,101429.38
2023-02-01T08:42:16.373Z,101422.72
2023-02-01T08:44:43.147Z,101432.50
2023-02-01T08:47:09.656Z,101445.75
2023-02-01T08:49:36.217Z,101448.41
2023-02-01T08:52:07.304Z,101438.53
2023-02-01T08:54:37.220Z,101448.59
2023-02-01T08:57:04.969Z,101442.50
2023-02-01T08:59:31.427Z,101446.72
2023-02-01T09:01:58.096Z,101447.56
2023-02-01T09:04:24.707Z,101456.56
2023-02-01T09:06:51.205Z,101452.59
2023-02-01T09:09:17.856Z,101455.72
2023-02-01T09:11:44.515Z,101450.03
2023-02-01T09:14:11.027Z,101448.34
2023-02-01T09:16:37.471Z,101448.16
2023-02-01T09:19:27.651Z,101450.44
2023-02-01T09:21:50.515Z,101436.97
2023-02-01T09:24:17.028Z,101449.47
2023-02-01T09:26:43.569Z,101440.97
2023-02-01T09:29:12.741Z,101445.09
2023-02-01T09:31:44.155Z,101438.81
2023-02-01T09:34:16.461Z,101437.66
2023-02-01T09:36:43.152Z,101438.22
2023-02-01T09:39:09.697Z,101431.88
2023-02-01T09:41:57.481Z,101435.16
2023-02-01T09:44:45.680Z,101440.34
2023-02-01T09:47:15.727Z,101437.22
2023-02-01T09:50:22.578Z,101448.66
2023-02-01T09:52:57.109Z,101445.34
2023-02-01T09:55:39.115Z,101435.81
2023-02-01T09:58:12.285Z,101446.97
2023-02-01T10:00:40.261Z,101441.31
2023-02-01T10:03:12.353Z,101429.84
2023-02-01T10:05:44.515Z,101440.03
2023-02-01T10:08:40.071Z,101444.03
2023-02-01T10:11:49.504Z,101444.47
2023-02-01T10:14:26.477Z,101444.75
2023-02-01T10:16:59.863Z,101433.91
2023-02-01T10:19:44.893Z,101426.84
2023-02-01T10:22:48.336Z,101417.38
2023-02-01T10:25:42.873Z,101423.00
2023-02-01T10:28:15.891Z,101413.81
2023-02-01T10:30:48.159Z,101413.25
2023-02-01T10:33:19.376Z,101415.16
2023-02-01T10:35:47.210Z,101415.59
2023-02-01T10:38:27.917Z,101399.81
2023-02-01T10:40:58.076Z,101421.34
2023-02-01T10:43:24.669Z,101417.50
2023-02-01T10:45:51.111Z,101432.94
2023-02-01T10:48:17.933Z,101418.28
2023-02-01T10:51:01.867Z,101407.75
2023-02-01T10:53:46.985Z,101404.53
2023-02-01T10:56:14.417Z,101408.75
2023-02-01T10:58:47.066Z,101397.22
2023-02-01T11:01:29.007Z,101393.22
2023-02-01T11:04:00.998Z,101398.88
2023-02-01T11:06:27.452Z,101391.22
2023-02-01T11:09:00.533Z,101391.38
2023-02-01T11:11:27.323Z,101391.00
2023-02-01T11:13:59.633Z,101397.41
2023-02-01T11:16:36.828Z,101397.16
2023-02-01T11:19:03.989Z,101397.50
2023-02-01T11:21:30.831Z,101395.66
2023-02-01T11:24:02.589Z,101390.03
2023-02-01T11:26:29.543Z,101389.56
2023-02-01T11:29:04.947Z,101378.56
2023-02-01T11:31:34.855Z,101381.72
2023-02-01T11:34:16.663Z,101375.16
2023-02-01T11:36:46.161Z,101376.69
2023-02-01T11:39:15.628Z,101377.41
2023-02-01T11:41:43.207Z,101382.25
2023-02-01T11:44:27.317Z,101381.47
2023-02-01T11:46:53.925Z,101375.69
2023-02-01T11:49:28.437Z,101374.00
2023-02-01T11:52:16.154Z,101374.16
2023-02-01T11:54:57.708Z,101365.00
2023-02-01T11:57:53.775Z,101364.06
2023-02-01T12:00:38.947Z,101365.47
2023-02-01T12:03:23.815Z,101351.97
2023-02-01T12:06:20.654Z,101351.16
2023-02-01T12:09:21.177Z,101359.47
2023-02-01T12:12:09.950Z,101341.28
2023-02-01T12:14:54.676Z,101329.13
2023-02-01T12:17:24.133Z,101314.03
2023-02-01T12:20:09.241Z,101332.53
2023-02-01T12:23:06.721Z,101324.16
2023-02-01T12:26:03.709Z,101324.63
2023-02-01T12:28:54.904Z,101327.91
2023-02-01T12:31:30.372Z,101339.13
2023-02-01T12:34:24.113Z,101329.72
2023-02-01T12:37:14.926Z,101329.03
2023-02-01T12:39:55.377Z,101327.81
2023-02-01T12:42:32.588Z,101329.38
2023-02-01T12:45:17.092Z,101324.03
2023-02-01T12:47:53.535Z,101331.22
2023-02-01T12:50:29.419Z,101328.56
2023-02-01T12:53:08.755Z,101322.19
2023-02-01T12:55:37.292Z,101314.72
2023-02-01T12:58:25.241Z,101317.69
2023-02-01T13:01:00.485Z,101311.25
2023-02-01T13:03:54.210Z,101305.47
2023-02-01T13:06:27.243Z,101288.38
2023-02-01T13:08:58.846Z,101285.66
2023-02-01T13:11:34.092Z,101288.66
2023-02-01T13:14:14.512Z,101298.94
2023-02-01T13:16:51.070Z,101283.44
2023-02-01T13:19:27.314Z,101286.44
2023-02-01T13:22:16.625Z,101254.31
2023-02-01T13:25:00.678Z,101284.06
2023-02-01T13:27:31.334Z,101271.81
2023-02-01T13:30:02.131Z,101271.09
2023-02-01T13:32:54.828Z,101272.66
2023-02-01T13:35:46.324Z,101271.03
2023-02-01T13:38:12.908Z,101274.03
2023-02-01T13:40:45.698Z,101267.13
2023-02-01T13:43:24.416Z,101265.56
2023-02-01T13:45:55.759Z,101261.34
2023-02-01T13:48:35.795Z,101259.19
2023-02-01T13:51:03.254Z,101259.81
2023-02-01T13:53:37.850Z,101259.81
2023-02-01T13:56:19.452Z,101257.44
2023-02-01T13:58:48.757Z,101257.44
2023-02-01T14:01:22.075Z,101263.03
2023-02-01T14:03:52.807Z,101255.28
2023-02-01T14:06:28.392Z,101257.97
2023-02-01T14:09:11.921Z,101261.19
2023-02-01T14:11:58.053Z,101256.50
2023-02-01T14:14:25.342Z,101260.88
2023-02-01T14:16:54.827Z,101252.47
2023-02-01T14:19:25.925Z,101261.22
2023-02-01T14:21:59.763Z,101255.69
2023-02-01T14:24:31.705Z,101260.91
2023-02-01T14:27:01.124Z,101263.47
2023-02-01T14:29:37.940Z,101248.78
2023-02-01T14:32:23.556Z,101268.53
2023-02-01T14:34:55.472Z,101265.53
2023-02-01T14:37:22.763Z,101274.78
2023-02-01T14:40:02.257Z,101273.59
2023-02-01T14:42:46.249Z,101279.84
2023-02-01T14:45:25.936Z,101272.25
2023-02-01T14:48:15.732Z,101281.19
2023-02-01T14:50:44.060Z,101276.78
2023-02-01T14:53:22.914Z,101273.09
2023-02-01T14:56:15.271Z,101281.03
2023-02-01T14:58:46.241Z,101282.16
2023-02-01T15:01:32.055Z,101286.78
2023-02-01T15:04:19.536Z,101284.22
2023-02-01T15:06:58.280Z,101289.31
2023-02-01T15:09:35.656Z,101289.16
2023-02-01T15:12:18.371Z,101285.75
2023-02-01T15:15:09.547Z,101274.31
2023-02-01T15:17:36.092Z,101279.53
2023-02-01T15:20:13.848Z,101280.38
2023-02-01T15:22:40.513Z,101292.00
2023-02-01T15:25:19.093Z,101299.53
2023-02-01T15:27:45.705Z,101292.53
2023-02-01T15:30:21.240Z,101293.84
2023-02-01T15:32:48.925Z,101297.38
2023-02-01T15:35:39.672Z,101298.41
2023-02-01T15:38:24.409Z,101303.78
2023-02-01T15:40:59.491Z,101297.53
2023-02-01T15:43:28.148Z,101304.31
2023-02-01T15:46:03.688Z,101315.09
2023-02-01T15:48:38.900Z,101300.63
2023-02-01T15:51:06.179Z,101307.69
2023-02-01T15:53:33.749Z,101316.28
2023-02-01T15:56:03.992Z,101305.50
2023-02-01T15:58:32.582Z,101314.31
2023-02-01T16:01:03.146Z,101306.91
2023-02-01T16:03:45.084Z,101318.00
2023-02-01T16:06:34.999Z,101314.09
2023-02-01T16:09:14.073Z,101315.09
2023-02-01T16:11:47.751Z,101306.25
2023-02-01T16:14:14.328Z,101320.19
2023-02-01T16:16:40.826Z,101323.19
2023-02-01T16:19:07.431Z,101328.78
2023-02-01T16:21:33.879Z,101335.28
2023-02-01T16:24:04.595Z,101331.53
2023-02-01T16:26:35.205Z,101336.84
2023-02-01T16:29:06.925Z,101349.56
2023-02-01T16:31:40.698Z,101354.53
2023-02-01T16:34:14.203Z,101352.94
2023-02-01T16:36:41.687Z,101351.84
2023-02-01T16:39:12.154Z,101354.00
2023-02-01T16:41:40.316Z,101360.38
2023-02-01T16:44:07.849Z,101359.31
2023-02-01T16:46:40.240Z,101336.84
2023-02-01T16:49:06.883Z,101360.28
2023-02-01T16:51:33.963Z,101359.59
2023-02-01T16:54:01.657Z,101360.16
2023-02-01T16:56:34.112Z,101363.56
2023-02-01T16:59:00.930Z,101354.50
2023-02-01T17:01:27.470Z,101362.44
2023-02-01T17:03:54.257Z,101368.25
2023-02-01T17:06:23.839Z,101367.13
2023-02-01T17:08:55.599Z,101368.94
2023-02-01T17:11:22.318Z,101363.41
2023-02-01T17:13:48.895Z,101370.66
2023-02-01T17:16:18.299Z,101369.94
2023-02-01T17:18:45.082Z,101377.72
2023-02-01T17:21:11.689Z,101372.19
2023-02-01T17:23:38.673Z,101376.03
2023-02-01T17:26:05.453Z,101384.53
2023-02-01T17:28:32.768Z,101344.41
2023-02-01T17:30:59.259Z,101381.69
2023-02-01T17:33:35.797Z,101381.50
2023-02-01T17:36:06.213Z,101381.53
2023-02-01T17:38:34.542Z,101382.53
2023-02-01T17:41:01.432Z,101383.47
2023-02-01T17:43:28.025Z,101381.72
2023-02-01T17:46:25.911Z,101383.09
2023-02-01T17:48:55.926Z,101393.63
2023-02-01T17:51:27.785Z,101387.09
2023-02-01T17:53:55.115Z,101387.41
2023-02-01T17:56:24.362Z,101386.00
2023-02-01T17:58:51.544Z,101392.31
2023-02-01T18:01:23.380Z,101391.94
2023-02-01T18:03:50.857Z,101398.00
2023-02-01T18:06:28.350Z,101385.16
2023-02-01T18:08:54.832Z,101390.03
2023-02-01T18:11:23.694Z,101394.78
2023-02-01T18:13:52.934Z,101399.94
2023-02-01T18:16:31.933Z,101398.16
2023-02-01T18:19:01.730Z,101399.06
2023-02-01T18:21:40.392Z,101403.19
2023-02-01T18:24:07.203Z,101405.47
2023-02-01T18:26:33.799Z,101400.41
2023-02-01T18:29:00.239Z,101389.34
2023-02-01T18:31:30.124Z,101398.03
2023-02-01T18:33:58.306Z,101407.69
2023-02-01T18:36:25.503Z,101405.19
2023-02-01T18:38:56.141Z,101398.41
2023-02-01T18:41:23.204Z,101398.25
2023-02-01T18:43:51.205Z,101399.56
2023-02-01T18:46:18.242Z,101380.44
2023-02-01T18:48:45.348Z,101391.88
2023-02-01T18:51:13.681Z,101382.44
2023-02-01T18:53:40.313Z,101383.97
2023-02-01T18:56:07.181Z,101373.50
2023-02-01T18:58:33.670Z,101391.75
2023-02-01T19:01:09.344Z,101382.44
2023-02-01T19:03:45.484Z,101389.91
2023-02-01T19:06:15.021Z,101388.91
2023-02-01T19:08:42.133Z,101389.50
2023-02-01T19:11:10.053Z,101389.34
2023-02-01T19:13:39.396Z,101386.22
2023-02-01T19:16:10.782Z,101400.53
2023-02-01T19:18:38.072Z,101393.47
2023-02-01T19:21:09.918Z,101391.75
2023-02-01T19:23:39.285Z,101383.53
2023-02-01T19:26:11.255Z,101390.19
2023-02-01T19:28:37.666Z,101385.50
2023-02-01T19:31:06.075Z,101377.88
2023-02-01T19:33:33.334Z,101389.06
2023-02-01T19:36:05.160Z,101378.03
2023-02-01T19:38:33.154Z,101383.81
2023-02-01T19:40:59.670Z,101383.34
2023-02-01T19:43:26.266Z,101383.34
2023-02-01T19:45:53.676Z,101382.81
2023-02-01T19:48:20.176Z,101384.19
2023-02-01T19:50:47.043Z,101376.56
2023-02-01T19:53:13.535Z,101374.31
2023-02-01T19:55:45.546Z,101374.88
2023-02-01T19:58:12.123Z,101381.94
2023-02-01T20:00:37.767Z,101389.72
2023-02-01T20:03:04.550Z,101391.91
2023-02-01T20:05:31.111Z,101382.50
2023-02-01T20:07:57.645Z,101387.03
2023-02-01T20:10:24.299Z,101384.91
2023-02-01T20:12:50.811Z,101381.06
2023-02-01T20:15:17.391Z,101382.22
2023-02-01T20:17:44.627Z,101382.91
2023-02-01T20:20:11.389Z,101380.59
2023-02-01T20:22:37.881Z,101359.03
2023-02-01T20:25:04.967Z,101385.44
2023-02-01T20:27:32.303Z,101372.38
2023-02-01T20:29:59.114Z,101384.97
2023-02-01T20:32:25.765Z,101367.69
2023-02-01T20:34:53.538Z,101365.84
2023-02-01T20:37:21.190Z,101369.09
2023-02-01T20:39:47.888Z,101368.94
2023-02-01T20:42:14.418Z,101368.22
2023-02-01T20:44:40.883Z,101367.38
2023-02-01T20:47:07.306Z,101359.16
2023-02-01T20:49:34.748Z,101374.63
2023-02-01T20:52:01.344Z,101366.56
2023-02-01T20:54:27.852Z,101376.31
2023-02-01T20:56:54.518Z,101372.91
2023-02-01T20:59:20.967Z,101370.06
2023-02-01T21:01:53.771Z,101372.75
2023-02-01T21:04:22.434Z,101377.63
2023-02-01T21:06:49.506Z,101372.59
2023-02-01T21:09:16.781Z,101380.69
2023-02-01T21:11:44.181Z,101372.09
2023-02-01T21:14:11.040Z,101365.69
2023-02-01T21:16:37.700Z,101374.63
2023-02-01T21:19:04.521Z,101355.38
2023-02-01T21:21:31.385Z,101365.47
2023-02-01T21:23:59.283Z,101382.56
2023-02-01T21:26:27.251Z,101386.78
2023-02-01T21:28:55.527Z,101384.09
2023-02-01T21:31:25.457Z,101393.84
2023-02-01T21:33:52.338Z,101395.16
2023-02-01T21:36:19.451Z,101405.63
2023-02-01T21:38:51.873Z,101413.41
2023-02-01T21:41:39.166Z,101409.00
2023-02-01T21:44:05.959Z,101417.63
2023-02-01T21:46:33.092Z,101407.31
2023-02-01T21:49:05.859Z,101402.47
2023-02-01T21:51:35.524Z,101414.38
2023-02-01T21:54:03.888Z,101407.88
2023-02-01T21:56:30.514Z,101418.94
2023-02-01T21:58:57.091Z,101409.63
2023-02-01T22:01:24.918Z,101419.47
2023-02-01T22:03:51.633Z,101403.06
2023-02-01T22:06:28.314Z,101410.84
2023-02-01T22:08:55.206Z,101429.56
2023-02-01T22:11:22.125Z,101421.19
2023-02-01T22:13:48.858Z,101427.53
2023-02-01T22:16:17.943Z,101430.53
2023-02-01T22:18:45.562Z,101433.56
2023-02-01T22:21:12.024Z,101434.69
2023-02-01T22:23:38.687Z,101428.63
2023-02-01T22:26:09.025Z,101440.22
2023-02-01T22:28:37.064Z,101441.63
2023-02-01T22:31:07.118Z,101438.53
2023-02-01T22:33:34.864Z,101435.97
2023-02-01T22:36:04.091Z,101440.69
2023-02-01T22:38:35.426Z,101428.50
2023-02-01T22:41:05.781Z,101435.44
2023-02-01T22:43:33.150Z,101444.06
2023-02-01T22:46:08.783Z,101445.34
2023-02-01T22:48:37.198Z,101439.53
2023-02-01T22:51:05.041Z,101445.22
2023-02-01T22:53:32.401Z,101445.88
2023-02-01T22:56:06.191Z,101442.53
2023-02-01T22:58:35.770Z,101450.31
2023-02-01T23:01:07.968Z,101446.22
2023-02-01T23:03:36.096Z,101454.16
2023-02-01T23:06:03.823Z,101457.00
2023-02-01T23:08:30.352Z,101454.75
2023-02-01T23:11:05.060Z,101456.41
2023-02-01T23:13:33.079Z,101457.97
2023-02-01T23:16:03.615Z,101446.81
2023-02-01T23:18:30.127Z,101468.56
2023-02-01T23:20:56.632Z,101458.09
2023-02-01T23:23:23.166Z,101459.34
2023-02-01T23:25:51.231Z,101462.03
2023-02-01T23:28:17.709Z,101469.13
2023-02-01T23:30:44.293Z,101460.34
2023-02-01T23:33:10.751Z,101464.72
2023-02-01T23:35:37.214Z,101469.28
2023-02-01T23:38:03.831Z,101472.81
2023-02-01T23:40:31.885Z,101479.91
2023-02-01T23:43:16.647Z,101468.84
2023-02-01T23:45:43.312Z,101478.59
2023-02-01T23:48:09.855Z,101481.31
2023-02-01T23:50:36.549Z,101473.22
2023-02-01T23:53:03.034Z,101482.31
2023-02-01T23:55:29.733Z,101484.00
2023-02-01T23:57:56.195Z,101489.53
